sensor_id;sensor_type;location;lat;lon;timestamp;pressure;altitude;pressure_sealevel;temperature;humidity
29163;BME280;20331;53.144;8.208;2022-07-19T00:03:50;101749.88;;;22.77;62.15
29163;BME280;20331;53.144;8.208;2022-07-19T00:14:12;101744.50;;;22.69;62.36
29163;BME280;20331;53.144;8.208;2022-07-19T00:24:33;101741.25;;;22.58;62.66
29163;BME280;20331;53.144;8.208;2022-07-19T00:34:55;101747.41;;;22.41;63.10
29163;BME280;20331;53.144;8.208;2022-07-19T00:45:16;101739.09;;;22.27;63.10
29163;BME280;20331;53.144;8.208;2022-07-19T00:55:39;101726.31;;;22.13;63.24
29163;BME280;20331;53.144;8.208;2022-07-19T01:06:02;101725.84;;;22.00;63.78
29163;BME280;20331;53.144;8.208;2022-07-19T01:16:24;101734.78;;;21.99;63.72
29163;BME280;20331;53.144;8.208;2022-07-19T01:26:46;101737.38;;;21.91;63.11
29163;BME280;20331;53.144;8.208;2022-07-19T01:37:08;101734.66;;;21.83;63.61
29163;BME280;20331;53.144;8.208;2022-07-19T01:47:29;101735.53;;;21.74;63.69
29163;BME280;20331;53.144;8.208;2022-07-19T01:57:51;101725.41;;;21.60;64.43
29163;BME280;20331;53.144;8.208;2022-07-19T02:08:12;101727.81;;;21.44;64.14
29163;BME280;20331;53.144;8.208;2022-07-19T02:18:34;101733.72;;;21.38;64.60
29163;BME280;20331;53.144;8.208;2022-07-19T02:28:56;101716.69;;;21.31;64.53
29163;BME280;20331;53.144;8.208;2022-07-19T02:39:17;101732.09;;;21.18;65.46
29163;BME280;20331;53.144;8.208;2022-07-19T02:49:39;101729.06;;;21.04;65.81
29163;BME280;20331;53.144;8.208;2022-07-19T03:00:04;101728.53;;;20.91;66.55
29163;BME280;20331;53.144;8.208;2022-07-19T03:10:26;101717.66;;;20.84;65.59
29163;BME280;20331;53.144;8.208;2022-07-19T03:20:47;101729.38;;;20.72;65.37
29163;BME280;20331;53.144;8.208;2022-07-19T03:31:09;101721.84;;;20.68;66.77
29163;BME280;20331;53.144;8.208;2022-07-19T03:41:31;101726.88;;;20.61;65.56
29163;BME280;20331;53.144;8.208;2022-07-19T03:51:53;101725.22;;;20.60;65.54
29163;BME280;20331;53.144;8.208;2022-07-19T04:02:14;101719.91;;;20.60;65.61
29163;BME280;20331;53.144;8.208;2022-07-19T04:12:36;101728.28;;;20.65;65.31
29163;BME280;20331;53.144;8.208;2022-07-19T04:22:58;101724.22;;;20.71;65.31
29163;BME280;20331;53.144;8.208;2022-07-19T04:33:20;101731.50;;;20.78;65.57
29163;BME280;20331;53.144;8.208;2022-07-19T04:43:41;101729.25;;;20.83;64.68
29163;BME280;20331;53.144;8.208;2022-07-19T04:54:03;101720.19;;;20.95;64.61
29163;BME280;20331;53.144;8.208;2022-07-19T05:04:24;101727.53;;;21.11;65.47
29163;BME280;20331;53.144;8.208;2022-07-19T05:14:46;101730.16;;;21.20;64.80
29163;BME280;20331;53.144;8.208;2022-07-19T05:25:08;101728.41;;;21.38;64.31
29163;BME280;20331;53.144;8.208;2022-07-19T05:35:30;101725.97;;;21.54;63.72
29163;BME280;20331;53.144;8.208;2022-07-19T05:45:52;101729.63;;;21.80;63.16
29163;BME280;20331;53.144;8.208;2022-07-19T05:56:14;101736.41;;;22.09;62.73
29163;BME280;20331;53.144;8.208;2022-07-19T06:06:35;101746.88;;;22.38;61.91
29163;BME280;20331;53.144;8.208;2022-07-19T06:16:57;101746.84;;;22.72;61.27
29163;BME280;20331;53.144;8.208;2022-07-19T06:27:19;101747.50;;;22.92;61.33
29163;BME280;20331;53.144;8.208;2022-07-19T06:37:40;101752.53;;;23.20;60.25
29163;BME280;20331;53.144;8.208;2022-07-19T06:48:02;101751.75;;;23.61;59.27
29163;BME280;20331;53.144;8.208;2022-07-19T06:58:23;101742.59;;;23.97;59.57
29163;BME280;20331;53.144;8.208;2022-07-19T07:08:45;101739.66;;;24.32;58.80
29163;BME280;20331;53.144;8.208;2022-07-19T07:19:07;101741.41;;;24.72;58.41
29163;BME280;20331;53.144;8.208;2022-07-19T07:29:28;101720.31;;;25.09;57.51
29163;BME280;20331;53.144;8.208;2022-07-19T07:39:50;101714.53;;;25.52;55.90
29163;BME280;20331;53.144;8.208;2022-07-19T07:50:12;101714.41;;;25.84;55.28
29163;BME280;20331;53.144;8.208;2022-07-19T08:00:34;101702.78;;;26.22;56.21
29163;BME280;20331;53.144;8.208;2022-07-19T08:10:56;101705.56;;;26.58;54.82
29163;BME280;20331;53.144;8.208;2022-07-19T08:21:18;101706.13;;;27.05;53.58
29163;BME280;20331;53.144;8.208;2022-07-19T08:31:40;101702.16;;;27.30;54.26
29163;BME280;20331;53.144;8.208;2022-07-19T08:42:02;101696.97;;;27.72;53.13
29163;BME280;20331;53.144;8.208;2022-07-19T08:52:25;101688.72;;;28.09;50.96
29163;BME280;20331;53.144;8.208;2022-07-19T09:03:00;101689.06;;;28.68;44.17
29163;BME280;20331;53.144;8.208;2022-07-19T09:13:22;101679.59;;;28.93;49.26
29163;BME280;20331;53.144;8.208;2022-07-19T09:23:44;101676.19;;;29.46;47.52
29163;BME280;20331;53.144;8.208;2022-07-19T09:34:06;101678.81;;;29.80;48.13
29163;BME280;20331;53.144;8.208;2022-07-19T09:44:27;101658.41;;;29.98;49.17
29163;BME280;20331;53.144;8.208;2022-07-19T09:54:51;101651.00;;;30.52;46.95
29163;BME280;20331;53.144;8.208;2022-07-19T10:05:14;101668.16;;;30.96;47.17
29163;BME280;20331;53.144;8.208;2022-07-19T10:15:39;101649.00;;;31.30;40.49
29163;BME280;20331;53.144;8.208;2022-07-19T10:26:03;101639.66;;;31.83;44.30
29163;BME280;20331;53.144;8.208;2022-07-19T10:46:59;101617.28;;;32.55;45.15
29163;BME280;20331;53.144;8.208;2022-07-19T10:57:35;101620.59;;;32.82;35.81
29163;BME280;20331;53.144;8.208;2022-07-19T11:07:58;101607.25;;;33.52;41.19
29163;BME280;20331;53.144;8.208;2022-07-19T11:18:20;101604.22;;;33.89;42.88
29163;BME280;20331;53.144;8.208;2022-07-19T11:28:44;101604.56;;;34.22;42.70
29163;BME280;20331;53.144;8.208;2022-07-19T11:39:06;101592.94;;;34.67;39.53
29163;BME280;20331;53.144;8.208;2022-07-19T11:49:38;101583.81;;;35.08;30.38
29163;BME280;20331;53.144;8.208;2022-07-19T11:59:59;101577.75;;;35.29;39.81
29163;BME280;20331;53.144;8.208;2022-07-19T12:11:04;101566.34;;;35.43;42.92
29163;BME280;20331;53.144;8.208;2022-07-19T12:21:20;101553.03;;;35.42;30.73
29163;BME280;20331;53.144;8.208;2022-07-19T12:31:43;101539.31;;;35.20;42.03
29163;BME280;20331;53.144;8.208;2022-07-19T12:42:06;101528.31;;;34.87;43.18
29163;BME280;20331;53.144;8.208;2022-07-19T12:52:28;101528.47;;;34.69;39.15
29163;BME280;20331;53.144;8.208;2022-07-19T13:02:50;101530.72;;;34.61;44.52
29163;BME280;20331;53.144;8.208;2022-07-19T13:13:12;101523.44;;;34.61;41.15
29163;BME280;20331;53.144;8.208;2022-07-19T13:23:33;101514.34;;;34.56;43.24
29163;BME280;20331;53.144;8.208;2022-07-19T13:33:55;101511.25;;;34.52;42.13
29163;BME280;20331;53.144;8.208;2022-07-19T13:44:17;101498.31;;;34.43;42.70
29163;BME280;20331;53.144;8.208;2022-07-19T13:54:39;101484.97;;;34.64;37.71
29163;BME280;20331;53.144;8.208;2022-07-19T14:05:00;101482.19;;;34.59;43.19
29163;BME280;20331;53.144;8.208;2022-07-19T14:15:22;101465.09;;;34.48;37.34
29163;BME280;20331;53.144;8.208;2022-07-19T14:25:43;101462.34;;;34.70;41.30
29163;BME280;20331;53.144;8.208;2022-07-19T14:36:19;101449.19;;;34.62;44.52
29163;BME280;20331;53.144;8.208;2022-07-19T14:46:41;101435.16;;;34.54;43.36
29163;BME280;20331;53.144;8.208;2022-07-19T14:57:02;101424.41;;;34.70;39.21
29163;BME280;20331;53.144;8.208;2022-07-19T15:07:24;101421.97;;;34.85;43.02
29163;BME280;20331;53.144;8.208;2022-07-19T15:17:46;101412.47;;;34.99;43.62
29163;BME280;20331;53.144;8.208;2022-07-19T15:28:08;101406.88;;;34.89;42.68
29163;BME280;20331;53.144;8.208;2022-07-19T15:38:29;101401.84;;;34.81;43.46
29163;BME280;20331;53.144;8.208;2022-07-19T15:48:51;101386.25;;;35.16;41.64
29163;BME280;20331;53.144;8.208;2022-07-19T15:59:13;101375.50;;;35.21;42.43
29163;BME280;20331;53.144;8.208;2022-07-19T16:09:35;101367.28;;;35.05;41.90
29163;BME280;20331;53.144;8.208;2022-07-19T16:19:58;101352.53;;;35.45;41.67
29163;BME280;20331;53.144;8.208;2022-07-19T16:30:19;101342.94;;;35.92;40.64
29163;BME280;20331;53.144;8.208;2022-07-19T16:40:41;101339.09;;;36.31;42.02
29163;BME280;20331;53.144;8.208;2022-07-19T16:51:03;101330.06;;;36.47;40.32
29163;BME280;20331;53.144;8.208;2022-07-19T17:01:25;101328.22;;;36.52;42.73
29163;BME280;20331;53.144;8.208;2022-07-19T17:11:46;101318.03;;;36.43;40.40
29163;BME280;20331;53.144;8.208;2022-07-19T17:22:08;101326.44;;;36.41;40.57
29163;BME280;20331;53.144;8.208;2022-07-19T17:32:35;101316.28;;;36.32;42.68
29163;BME280;20331;53.144;8.208;2022-07-19T17:42:58;101309.50;;;36.08;42.98
29163;BME280;20331;53.144;8.208;2022-07-19T17:53:19;101304.63;;;35.72;44.88
29163;BME280;20331;53.144;8.208;2022-07-19T18:03:41;101306.66;;;35.44;44.15
29163;BME280;20331;53.144;8.208;2022-07-19T18:14:04;101299.94;;;35.13;46.20
29163;BME280;20331;53.144;8.208;2022-07-19T18:24:26;101302.53;;;34.75;45.53
29163;BME280;20331;53.144;8.208;2022-07-19T18:34:47;101301.84;;;34.41;46.18
29163;BME280;20331;53.144;8.208;2022-07-19T18:45:09;101299.00;;;34.08;44.21
29163;BME280;20331;53.144;8.208;2022-07-19T18:55:31;101300.50;;;33.76;44.38
29163;BME280;20331;53.144;8.208;2022-07-19T19:05:53;101311.09;;;33.43;46.85
29163;BME280;20331;53.144;8.208;2022-07-19T19:16:15;101298.31;;;33.09;44.38
29163;BME280;20331;53.144;8.208;2022-07-19T19:26:37;101297.91;;;32.71;45.15
29163;BME280;20331;53.144;8.208;2022-07-19T19:36:59;101299.19;;;32.40;46.30
29163;BME280;20331;53.144;8.208;2022-07-19T19:47:20;101297.28;;;32.11;47.84
29163;BME280;20331;53.144;8.208;2022-07-19T19:57:43;101297.66;;;31.78;45.86
29163;BME280;20331;53.144;8.208;2022-07-19T20:08:05;101302.84;;;31.55;45.28
29163;BME280;20331;53.144;8.208;2022-07-19T20:18:27;101298.38;;;31.25;47.25
29163;BME280;20331;53.144;8.208;2022-07-19T20:28:48;101303.34;;;31.04;46.97
29163;BME280;20331;53.144;8.208;2022-07-19T20:39:11;101297.09;;;30.72;46.67
29163;BME280;20331;53.144;8.208;2022-07-19T20:49:33;101289.19;;;30.46;48.33
29163;BME280;20331;53.144;8.208;2022-07-19T20:59:54;101300.88;;;30.28;48.64
29163;BME280;20331;53.144;8.208;2022-07-19T21:10:16;101293.91;;;30.14;47.66
29163;BME280;20331;53.144;8.208;2022-07-19T21:20:37;101296.47;;;29.89;47.93
29163;BME280;20331;53.144;8.208;2022-07-19T21:30:59;101296.97;;;29.67;47.84
29163;BME280;20331;53.144;8.208;2022-07-19T21:41:21;101302.94;;;29.56;47.35
29163;BME280;20331;53.144;8.208;2022-07-19T21:51:42;101301.13;;;29.37;48.02
29163;BME280;20331;53.144;8.208;2022-07-19T22:02:04;101306.50;;;29.24;46.94
29163;BME280;20331;53.144;8.208;2022-07-19T22:12:25;101305.25;;;29.14;47.99
29163;BME280;20331;53.144;8.208;2022-07-19T22:22:47;101310.19;;;28.97;46.46
29163;BME280;20331;53.144;8.208;2022-07-19T22:33:08;101305.22;;;28.81;47.77
29163;BME280;20331;53.144;8.208;2022-07-19T22:43:30;101298.38;;;28.72;47.41
29163;BME280;20331;53.144;8.208;2022-07-19T22:53:51;101294.00;;;28.58;47.73
29163;BME280;20331;53.144;8.208;2022-07-19T23:04:13;101293.59;;;28.42;46.26
29163;BME280;20331;53.144;8.208;2022-07-19T23:14:35;101298.47;;;28.26;47.94
29163;BME280;20331;53.144;8.208;2022-07-19T23:24:57;101287.25;;;28.16;46.90
29163;BME280;20331;53.144;8.208;2022-07-19T23:35:18;101281.22;;;28.01;47.57
29163;BME280;20331;53.144;8.208;2022-07-19T23:45:41;101274.53;;;27.84;46.88
29163;BME280;20331;53.144;8.208;2022-07-19T23:56:03;101276.13;;;27.72;45.57
